sensor_id;sensor_type;location;lat;lon;timestamp;pressure;altitude;pressure_sealevel;temperature;humidity
19114;BME280;9689;51.052;13.772;2023-08-01T00:00:14;99166.63;;;18.54;71.19
19114;BME280;9689;51.052;13.772;2023-08-01T00:05:16;99155.34;;;18.52;72.55
19114;BME280;9689;51.052;13.772;2023-08-01T00:10:17;99138.31;;;18.56;72.87
19114;BME280;9689;51.052;13.772;2023-08-01T00:15:19;99128.81;;;18.66;73.01
19114;BME280;9689;51.052;13.772;2023-08-01T00:20:20;99114.16;;;18.62;73.25
19114;BME280;9689;51.052;13.772;2023-08-01T00:25:21;99113.63;;;18.70;72.88
19114;BME280;9689;51.052;13.772;2023-08-01T00:30:23;99100.59;;;18.79;71.87
19114;BME280;9689;51.052;13.772;2023-08-01T00:35:24;99092.88;;;18.76;71.54
19114;BME280;9689;51.052;13.772;2023-08-01T00:40:29;99085.25;;;18.60;72.09
19114;BME280;9689;51.052;13.772;2023-08-01T00:45:32;99064.00;;;18.62;70.91
19114;BME280;9689;51.052;13.772;2023-08-01T00:50:33;99061.88;;;18.67;71.94
19114;BME280;9689;51.052;13.772;2023-08-01T00:55:34;99049.38;;;18.82;71.86
19114;BME280;9689;51.052;13.772;2023-08-01T01:00:37;99051.78;;;18.85;71.14
19114;BME280;9689;51.052;13.772;2023-08-01T01:05:41;99032.84;;;18.91;70.89
19114;BME280;9689;51.052;13.772;2023-08-01T01:10:43;99037.56;;;18.99;70.80
19114;BME280;9689;51.052;13.772;2023-08-01T01:15:45;99017.53;;;18.96;70.11
19114;BME280;9689;51.052;13.772;2023-08-01T01:20:47;99015.88;;;19.17;68.64
19114;BME280;9689;51.052;13.772;2023-08-01T01:25:49;99008.22;;;19.14;67.74
19114;BME280;9689;51.052;13.772;2023-08-01T01:30:52;98998.25;;;19.18;66.79
19114;BME280;9689;51.052;13.772;2023-08-01T01:35:55;98992.50;;;19.24;65.45
19114;BME280;9689;51.052;13.772;2023-08-01T01:40:56;98991.41;;;19.27;64.56
19114;BME280;9689;51.052;13.772;2023-08-01T01:45:56;98993.84;;;19.30;64.10
19114;BME280;9689;51.052;13.772;2023-08-01T01:50:59;98985.09;;;19.40;63.51
19114;BME280;9689;51.052;13.772;2023-08-01T01:55:59;98970.66;;;19.44;62.52
19114;BME280;9689;51.052;13.772;2023-08-01T02:01:00;98969.69;;;19.45;62.73
19114;BME280;9689;51.052;13.772;2023-08-01T02:06:03;98968.84;;;19.34;63.95
19114;BME280;9689;51.052;13.772;2023-08-01T02:11:04;98976.94;;;18.86;67.90
19114;BME280;9689;51.052;13.772;2023-08-01T02:16:04;98979.25;;;18.43;70.83
19114;BME280;9689;51.052;13.772;2023-08-01T02:21:06;98973.75;;;17.85;74.73
19114;BME280;9689;51.052;13.772;2023-08-01T02:26:08;98963.09;;;17.61;78.06
19114;BME280;9689;51.052;13.772;2023-08-01T02:31:09;98953.53;;;17.35;79.30
19114;BME280;9689;51.052;13.772;2023-08-01T02:36:11;98938.81;;;17.19;81.59
19114;BME280;9689;51.052;13.772;2023-08-01T02:41:12;98935.34;;;17.06;83.76
19114;BME280;9689;51.052;13.772;2023-08-01T02:46:13;98927.88;;;17.13;84.26
19114;BME280;9689;51.052;13.772;2023-08-01T02:51:15;98921.53;;;17.03;84.84
19114;BME280;9689;51.052;13.772;2023-08-01T02:56:16;98918.38;;;16.98;86.49
19114;BME280;9689;51.052;13.772;2023-08-01T03:01:16;98909.88;;;16.94;86.59
19114;BME280;9689;51.052;13.772;2023-08-01T03:06:19;98899.34;;;16.94;87.60
19114;BME280;9689;51.052;13.772;2023-08-01T03:11:19;98883.44;;;16.95;87.95
19114;BME280;9689;51.052;13.772;2023-08-01T03:16:21;98881.78;;;16.94;87.42
19114;BME280;9689;51.052;13.772;2023-08-01T03:21:23;98877.75;;;16.89;88.29
19114;BME280;9689;51.052;13.772;2023-08-01T03:26:26;98869.31;;;16.84;89.64
19114;BME280;9689;51.052;13.772;2023-08-01T03:31:27;98860.91;;;16.91;89.12
19114;BME280;9689;51.052;13.772;2023-08-01T03:36:30;98853.13;;;16.90;89.33
19114;BME280;9689;51.052;13.772;2023-08-01T03:41:31;98835.03;;;16.85;89.32
19114;BME280;9689;51.052;13.772;2023-08-01T03:46:32;98822.69;;;16.99;88.80
19114;BME280;9689;51.052;13.772;2023-08-01T03:51:34;98829.22;;;16.93;88.51
19114;BME280;9689;51.052;13.772;2023-08-01T03:56:35;98826.41;;;16.96;88.72
19114;BME280;9689;51.052;13.772;2023-08-01T04:01:38;98817.00;;;16.92;89.72
19114;BME280;9689;51.052;13.772;2023-08-01T04:06:41;98810.72;;;16.94;89.02
19114;BME280;9689;51.052;13.772;2023-08-01T04:11:42;98805.19;;;17.23;87.58
19114;BME280;9689;51.052;13.772;2023-08-01T04:16:43;98794.69;;;17.47;86.11
19114;BME280;9689;51.052;13.772;2023-08-01T04:21:45;98780.31;;;17.51;85.33
19114;BME280;9689;51.052;13.772;2023-08-01T04:26:46;98784.44;;;17.55;84.37
19114;BME280;9689;51.052;13.772;2023-08-01T04:31:47;98769.00;;;17.74;83.33
19114;BME280;9689;51.052;13.772;2023-08-01T04:36:49;98767.56;;;17.58;84.03
19114;BME280;9689;51.052;13.772;2023-08-01T04:41:50;98761.16;;;17.49;84.39
19114;BME280;9689;51.052;13.772;2023-08-01T04:46:54;98749.59;;;17.63;83.89
19114;BME280;9689;51.052;13.772;2023-08-01T04:51:56;98736.88;;;17.80;83.66
19114;BME280;9689;51.052;13.772;2023-08-01T04:56:57;98744.59;;;17.84;83.30
19114;BME280;9689;51.052;13.772;2023-08-01T05:01:58;98734.09;;;17.71;83.99
19114;BME280;9689;51.052;13.772;2023-08-01T05:07:03;98728.91;;;17.69;84.63
19114;BME280;9689;51.052;13.772;2023-08-01T05:12:06;98723.63;;;17.58;85.58
19114;BME280;9689;51.052;13.772;2023-08-01T05:17:08;98721.22;;;17.55;85.96
19114;BME280;9689;51.052;13.772;2023-08-01T05:22:10;98720.69;;;17.50;86.72
19114;BME280;9689;51.052;13.772;2023-08-01T05:27:11;98704.75;;;17.40;87.74
19114;BME280;9689;51.052;13.772;2023-08-01T05:32:12;98702.66;;;17.33;88.38
19114;BME280;9689;51.052;13.772;2023-08-01T05:37:14;98698.78;;;17.26;89.22
19114;BME280;9689;51.052;13.772;2023-08-01T05:42:14;98695.72;;;17.32;89.46
19114;BME280;9689;51.052;13.772;2023-08-01T05:47:15;98690.34;;;17.33;89.99
19114;BME280;9689;51.052;13.772;2023-08-01T05:52:17;98686.28;;;17.29;90.51
19114;BME280;9689;51.052;13.772;2023-08-01T05:57:18;98684.75;;;17.38;91.17
19114;BME280;9689;51.052;13.772;2023-08-01T06:02:19;98680.09;;;17.41;91.20
19114;BME280;9689;51.052;13.772;2023-08-01T06:07:22;98670.66;;;17.50;91.78
19114;BME280;9689;51.052;13.772;2023-08-01T06:12:23;98664.25;;;17.65;91.16
19114;BME280;9689;51.052;13.772;2023-08-01T06:17:24;98646.66;;;17.66;90.76
19114;BME280;9689;51.052;13.772;2023-08-01T06:22:26;98645.53;;;17.81;90.97
19114;BME280;9689;51.052;13.772;2023-08-01T06:27:27;98649.72;;;17.84;90.41
19114;BME280;9689;51.052;13.772;2023-08-01T06:32:27;98649.94;;;17.80;90.69
19114;BME280;9689;51.052;13.772;2023-08-01T06:37:30;98648.75;;;17.73;91.33
19114;BME280;9689;51.052;13.772;2023-08-01T06:42:31;98662.59;;;17.64;91.04
19114;BME280;9689;51.052;13.772;2023-08-01T06:47:32;98665.53;;;17.60;91.44
19114;BME280;9689;51.052;13.772;2023-08-01T06:52:34;98667.59;;;17.56;90.02
19114;BME280;9689;51.052;13.772;2023-08-01T06:57:35;98654.03;;;17.49;89.41
19114;BME280;9689;51.052;13.772;2023-08-01T07:02:36;98642.28;;;17.53;89.38
19114;BME280;9689;51.052;13.772;2023-08-01T07:07:39;98647.69;;;17.63;91.72
19114;BME280;9689;51.052;13.772;2023-08-01T07:12:40;98639.47;;;17.68;90.89
19114;BME280;9689;51.052;13.772;2023-08-01T07:17:40;98648.97;;;17.70;91.12
19114;BME280;9689;51.052;13.772;2023-08-01T07:22:45;98642.66;;;17.84;90.29
19114;BME280;9689;51.052;13.772;2023-08-01T07:27:46;98636.47;;;18.07;88.31
19114;BME280;9689;51.052;13.772;2023-08-01T07:32:47;98635.72;;;18.39;87.39
19114;BME280;9689;51.052;13.772;2023-08-01T07:37:50;98639.44;;;18.81;86.54
19114;BME280;9689;51.052;13.772;2023-08-01T07:42:50;98639.16;;;18.96;85.91
19114;BME280;9689;51.052;13.772;2023-08-01T07:47:51;98635.69;;;18.95;83.72
19114;BME280;9689;51.052;13.772;2023-08-01T07:52:57;98637.72;;;18.91;82.11
19114;BME280;9689;51.052;13.772;2023-08-01T07:57:58;98629.25;;;19.20;79.63
19114;BME280;9689;51.052;13.772;2023-08-01T08:02:59;98629.41;;;19.39;78.59
19114;BME280;9689;51.052;13.772;2023-08-01T08:08:01;98628.22;;;19.64;77.06
19114;BME280;9689;51.052;13.772;2023-08-01T08:13:02;98638.84;;;19.95;75.65
19114;BME280;9689;51.052;13.772;2023-08-01T08:18:03;98637.44;;;19.91;73.19
19114;BME280;9689;51.052;13.772;2023-08-01T08:23:06;98618.47;;;19.86;74.06
19114;BME280;9689;51.052;13.772;2023-08-01T08:28:07;98618.72;;;20.34;72.01
19114;BME280;9689;51.052;13.772;2023-08-01T08:33:08;98601.81;;;20.56;70.26
19114;BME280;9689;51.052;13.772;2023-08-01T08:38:13;98598.25;;;20.86;67.16
19114;BME280;9689;51.052;13.772;2023-08-01T08:43:14;98603.41;;;20.78;66.87
19114;BME280;9689;51.052;13.772;2023-08-01T08:48:18;98600.34;;;20.92;66.07
19114;BME280;9689;51.052;13.772;2023-08-01T08:53:21;98604.38;;;20.77;67.20
19114;BME280;9689;51.052;13.772;2023-08-01T08:58:22;98615.50;;;20.71;66.01
19114;BME280;9689;51.052;13.772;2023-08-01T09:03:23;98590.56;;;20.83;67.25
19114;BME280;9689;51.052;13.772;2023-08-01T09:08:27;98585.03;;;20.86;65.80
19114;BME280;9689;51.052;13.772;2023-08-01T09:13:30;98581.25;;;21.08;65.42
19114;BME280;9689;51.052;13.772;2023-08-01T09:18:31;98570.91;;;20.76;65.82
19114;BME280;9689;51.052;13.772;2023-08-01T09:23:33;98560.31;;;20.76;65.79
19114;BME280;9689;51.052;13.772;2023-08-01T09:28:34;98560.19;;;20.68;66.22
19114;BME280;9689;51.052;13.772;2023-08-01T09:33:39;98551.03;;;20.41;68.11
19114;BME280;9689;51.052;13.772;2023-08-01T09:38:42;98514.63;;;20.14;68.77
19114;BME280;9689;51.052;13.772;2023-08-01T09:43:43;98506.00;;;20.12;67.19
19114;BME280;9689;51.052;13.772;2023-08-01T09:48:43;98526.75;;;20.17;65.80
19114;BME280;9689;51.052;13.772;2023-08-01T09:53:50;98536.22;;;20.69;63.33
19114;BME280;9689;51.052;13.772;2023-08-01T09:58:53;98508.63;;;20.91;62.90
19114;BME280;9689;51.052;13.772;2023-08-01T10:03:56;98514.47;;;21.43;61.95
19114;BME280;9689;51.052;13.772;2023-08-01T10:09:00;98526.88;;;21.23;61.00
19114;BME280;9689;51.052;13.772;2023-08-01T10:14:03;98523.13;;;21.35;60.37
19114;BME280;9689;51.052;13.772;2023-08-01T10:19:06;98541.41;;;21.38;58.84
19114;BME280;9689;51.052;13.772;2023-08-01T10:24:08;98550.31;;;21.47;59.30
19114;BME280;9689;51.052;13.772;2023-08-01T10:29:10;98554.28;;;21.70;58.84
19114;BME280;9689;51.052;13.772;2023-08-01T10:34:13;98555.22;;;21.79;57.51
19114;BME280;9689;51.052;13.772;2023-08-01T10:39:21;98580.06;;;21.88;57.16
19114;BME280;9689;51.052;13.772;2023-08-01T10:44:22;98588.72;;;21.90;54.55
19114;BME280;9689;51.052;13.772;2023-08-01T10:49:34;98581.94;;;22.05;53.90
19114;BME280;9689;51.052;13.772;2023-08-01T10:54:37;98555.09;;;22.27;54.04
19114;BME280;9689;51.052;13.772;2023-08-01T10:59:40;98549.03;;;22.80;52.45
19114;BME280;9689;51.052;13.772;2023-08-01T11:04:42;98555.81;;;22.93;51.55
19114;BME280;9689;51.052;13.772;2023-08-01T11:09:44;98553.59;;;23.06;51.78
19114;BME280;9689;51.052;13.772;2023-08-01T11:14:46;98550.28;;;23.04;52.58
19114;BME280;9689;51.052;13.772;2023-08-01T11:19:47;98564.72;;;23.45;49.73
19114;BME280;9689;51.052;13.772;2023-08-01T11:24:51;98551.56;;;23.44;49.55
19114;BME280;9689;51.052;13.772;2023-08-01T11:29:51;98560.66;;;23.15;49.89
19114;BME280;9689;51.052;13.772;2023-08-01T11:34:52;98558.28;;;23.48;49.38
19114;BME280;9689;51.052;13.772;2023-08-01T11:39:55;98569.84;;;23.82;48.16
19114;BME280;9689;51.052;13.772;2023-08-01T11:45:07;98579.72;;;23.54;50.50
19114;BME280;9689;51.052;13.772;2023-08-01T11:50:08;98578.34;;;23.24;50.93
19114;BME280;9689;51.052;13.772;2023-08-01T11:55:20;98564.25;;;23.06;51.62
19114;BME280;9689;51.052;13.772;2023-08-01T12:00:22;98545.22;;;23.19;51.09
19114;BME280;9689;51.052;13.772;2023-08-01T12:05:24;98579.13;;;22.71;53.05
19114;BME280;9689;51.052;13.772;2023-08-01T12:10:36;98573.00;;;22.06;54.16
19114;BME280;9689;51.052;13.772;2023-08-01T12:15:37;98597.97;;;21.66;56.23
19114;BME280;9689;51.052;13.772;2023-08-01T12:20:38;98624.81;;;19.73;63.89
19114;BME280;9689;51.052;13.772;2023-08-01T12:25:40;98642.06;;;18.14;75.01
19114;BME280;9689;51.052;13.772;2023-08-01T12:30:43;98651.53;;;17.83;79.61
19114;BME280;9689;51.052;13.772;2023-08-01T12:35:44;98662.16;;;17.46;82.10
19114;BME280;9689;51.052;13.772;2023-08-01T12:40:46;98682.72;;;17.17;85.24
19114;BME280;9689;51.052;13.772;2023-08-01T12:45:47;98704.22;;;17.11;87.66
19114;BME280;9689;51.052;13.772;2023-08-01T12:50:52;98704.63;;;17.18;88.63
19114;BME280;9689;51.052;13.772;2023-08-01T12:55:54;98731.63;;;17.33;89.93
19114;BME280;9689;51.052;13.772;2023-08-01T13:00:55;98737.50;;;17.36;87.14
19114;BME280;9689;51.052;13.772;2023-08-01T13:05:56;98733.78;;;17.63;87.92
19114;BME280;9689;51.052;13.772;2023-08-01T13:10:59;98726.47;;;18.25;83.83
19114;BME280;9689;51.052;13.772;2023-08-01T13:16:00;98715.09;;;18.92;79.20
19114;BME280;9689;51.052;13.772;2023-08-01T13:21:01;98711.78;;;19.33;76.41
19114;BME280;9689;51.052;13.772;2023-08-01T13:26:03;98710.53;;;19.48;76.50
19114;BME280;9689;51.052;13.772;2023-08-01T13:31:04;98716.75;;;20.12;76.12
19114;BME280;9689;51.052;13.772;2023-08-01T13:36:04;98718.84;;;20.39;75.73
19114;BME280;9689;51.052;13.772;2023-08-01T13:41:07;98713.97;;;20.65;73.23
19114;BME280;9689;51.052;13.772;2023-08-01T13:46:12;98725.50;;;20.33;72.53
19114;BME280;9689;51.052;13.772;2023-08-01T13:51:27;98717.31;;;20.67;70.07
19114;BME280;9689;51.052;13.772;2023-08-01T13:56:32;98715.50;;;21.07;67.54
19114;BME280;9689;51.052;13.772;2023-08-01T14:01:37;98715.13;;;21.22;65.81
19114;BME280;9689;51.052;13.772;2023-08-01T14:06:39;98716.44;;;20.87;63.92
19114;BME280;9689;51.052;13.772;2023-08-01T14:11:42;98727.34;;;20.63;64.50
19114;BME280;9689;51.052;13.772;2023-08-01T14:16:44;98715.81;;;20.74;64.51
19114;BME280;9689;51.052;13.772;2023-08-01T14:21:45;98718.31;;;20.75;63.12
19114;BME280;9689;51.052;13.772;2023-08-01T14:26:47;98699.13;;;20.83;63.97
19114;BME280;9689;51.052;13.772;2023-08-01T14:31:49;98702.88;;;21.21;63.13
19114;BME280;9689;51.052;13.772;2023-08-01T14:36:50;98693.97;;;21.41;61.51
19114;BME280;9689;51.052;13.772;2023-08-01T14:41:52;98701.34;;;21.86;61.08
19114;BME280;9689;51.052;13.772;2023-08-01T14:47:04;98704.84;;;21.86;60.55
19114;BME280;9689;51.052;13.772;2023-08-01T14:52:06;98708.31;;;21.96;60.33
19114;BME280;9689;51.052;13.772;2023-08-01T14:57:08;98714.81;;;22.41;59.39
19114;BME280;9689;51.052;13.772;2023-08-01T15:02:09;98713.13;;;21.64;60.67
19114;BME280;9689;51.052;13.772;2023-08-01T15:07:11;98721.72;;;21.95;59.28
19114;BME280;9689;51.052;13.772;2023-08-01T15:12:13;98728.78;;;22.52;57.66
19114;BME280;9689;51.052;13.772;2023-08-01T15:17:14;98736.44;;;22.55;54.95
19114;BME280;9689;51.052;13.772;2023-08-01T15:22:15;98747.47;;;22.61;56.39
19114;BME280;9689;51.052;13.772;2023-08-01T15:27:17;98748.25;;;21.85;58.15
19114;BME280;9689;51.052;13.772;2023-08-01T15:32:18;98756.22;;;21.85;58.47
19114;BME280;9689;51.052;13.772;2023-08-01T15:37:19;98747.69;;;21.53;57.75
19114;BME280;9689;51.052;13.772;2023-08-01T15:42:21;98762.44;;;21.36;56.87
19114;BME280;9689;51.052;13.772;2023-08-01T15:47:22;98761.59;;;21.35;56.94
19114;BME280;9689;51.052;13.772;2023-08-01T15:52:22;98772.22;;;21.45;55.74
19114;BME280;9689;51.052;13.772;2023-08-01T15:57:25;98763.63;;;21.72;55.51
19114;BME280;9689;51.052;13.772;2023-08-01T16:02:25;98762.94;;;21.89;53.07
19114;BME280;9689;51.052;13.772;2023-08-01T16:07:26;98757.84;;;22.44;51.54
19114;BME280;9689;51.052;13.772;2023-08-01T16:12:28;98764.72;;;22.37;51.01
19114;BME280;9689;51.052;13.772;2023-08-01T16:17:29;98760.13;;;21.91;48.13
19114;BME280;9689;51.052;13.772;2023-08-01T16:22:30;98753.22;;;22.93;46.09
19114;BME280;9689;51.052;13.772;2023-08-01T16:27:32;98753.19;;;23.30;43.91
19114;BME280;9689;51.052;13.772;2023-08-01T16:32:33;98750.91;;;24.24;42.29
19114;BME280;9689;51.052;13.772;2023-08-01T16:37:34;98772.34;;;24.41;41.26
19114;BME280;9689;51.052;13.772;2023-08-01T16:42:36;98780.78;;;22.82;45.78
19114;BME280;9689;51.052;13.772;2023-08-01T16:47:37;98795.94;;;22.63;44.43
19114;BME280;9689;51.052;13.772;2023-08-01T16:52:42;98806.66;;;22.80;42.71
19114;BME280;9689;51.052;13.772;2023-08-01T16:57:45;98807.34;;;22.92;42.20
19114;BME280;9689;51.052;13.772;2023-08-01T17:02:45;98811.06;;;22.52;43.42
19114;BME280;9689;51.052;13.772;2023-08-01T17:07:47;98822.44;;;22.25;44.21
19114;BME280;9689;51.052;13.772;2023-08-01T17:12:49;98814.84;;;21.82;45.01
19114;BME280;9689;51.052;13.772;2023-08-01T17:17:50;98821.00;;;21.73;45.96
19114;BME280;9689;51.052;13.772;2023-08-01T17:22:51;98820.97;;;22.60;44.73
19114;BME280;9689;51.052;13.772;2023-08-01T17:27:53;98809.84;;;24.30;41.26
19114;BME280;9689;51.052;13.772;2023-08-01T17:32:55;98799.09;;;25.68;39.35
19114;BME280;9689;51.052;13.772;2023-08-01T17:37:56;98805.53;;;25.41;39.30
19114;BME280;9689;51.052;13.772;2023-08-01T17:42:58;98816.25;;;24.19;42.47
19114;BME280;9689;51.052;13.772;2023-08-01T17:48:00;98807.50;;;24.27;42.85
19114;BME280;9689;51.052;13.772;2023-08-01T17:53:01;98819.34;;;23.61;44.29
19114;BME280;9689;51.052;13.772;2023-08-01T17:58:06;98828.66;;;22.63;46.53
19114;BME280;9689;51.052;13.772;2023-08-01T18:03:11;98848.06;;;21.86;48.97
19114;BME280;9689;51.052;13.772;2023-08-01T18:08:13;98846.50;;;21.64;50.13
19114;BME280;9689;51.052;13.772;2023-08-01T18:13:15;98867.13;;;21.51;50.04
19114;BME280;9689;51.052;13.772;2023-08-01T18:18:16;98865.63;;;21.28;50.34
19114;BME280;9689;51.052;13.772;2023-08-01T18:23:18;98875.13;;;21.09;50.86
19114;BME280;9689;51.052;13.772;2023-08-01T18:28:20;98876.06;;;20.99;51.01
19114;BME280;9689;51.052;13.772;2023-08-01T18:33:21;98884.22;;;20.65;52.29
19114;BME280;9689;51.052;13.772;2023-08-01T18:38:25;98890.34;;;20.45;52.53
19114;BME280;9689;51.052;13.772;2023-08-01T18:43:28;98904.94;;;20.28;54.06
19114;BME280;9689;51.052;13.772;2023-08-01T18:48:29;98917.88;;;20.10;55.08
19114;BME280;9689;51.052;13.772;2023-08-01T18:53:30;98918.00;;;19.97;56.08
19114;BME280;9689;51.052;13.772;2023-08-01T18:58:32;98930.78;;;19.92;56.94
19114;BME280;9689;51.052;13.772;2023-08-01T19:03:33;98939.81;;;19.79;57.91
19114;BME280;9689;51.052;13.772;2023-08-01T19:08:35;98942.22;;;19.70;58.52
19114;BME280;9689;51.052;13.772;2023-08-01T19:13:37;98951.13;;;19.69;58.20
19114;BME280;9689;51.052;13.772;2023-08-01T19:18:38;98959.50;;;19.63;58.17
19114;BME280;9689;51.052;13.772;2023-08-01T19:23:39;98966.97;;;19.47;59.16
19114;BME280;9689;51.052;13.772;2023-08-01T19:28:41;98982.53;;;19.28;59.99
19114;BME280;9689;51.052;13.772;2023-08-01T19:33:44;98987.69;;;19.18;59.92
19114;BME280;9689;51.052;13.772;2023-08-01T19:38:45;98993.97;;;18.93;61.13
19114;BME280;9689;51.052;13.772;2023-08-01T19:43:47;99014.03;;;18.96;60.48
19114;BME280;9689;51.052;13.772;2023-08-01T19:48:48;99006.91;;;18.85;60.60
19114;BME280;9689;51.052;13.772;2023-08-01T19:53:50;99011.00;;;18.89;61.60
19114;BME280;9689;51.052;13.772;2023-08-01T19:58:53;99029.22;;;18.81;62.54
19114;BME280;9689;51.052;13.772;2023-08-01T20:03:54;99040.69;;;18.69;63.49
19114;BME280;9689;51.052;13.772;2023-08-01T20:08:59;99048.28;;;18.84;63.69
19114;BME280;9689;51.052;13.772;2023-08-01T20:14:02;99046.50;;;18.61;63.94
19114;BME280;9689;51.052;13.772;2023-08-01T20:19:03;99047.66;;;18.70;61.96
19114;BME280;9689;51.052;13.772;2023-08-01T20:24:04;99057.25;;;18.58;62.52
19114;BME280;9689;51.052;13.772;2023-08-01T20:29:07;99066.59;;;18.51;62.20
19114;BME280;9689;51.052;13.772;2023-08-01T20:34:07;99065.84;;;18.49;61.79
19114;BME280;9689;51.052;13.772;2023-08-01T20:39:08;99070.38;;;18.47;62.95
19114;BME280;9689;51.052;13.772;2023-08-01T20:44:10;99067.75;;;18.10;64.56
19114;BME280;9689;51.052;13.772;2023-08-01T20:49:11;99070.81;;;18.04;65.35
19114;BME280;9689;51.052;13.772;2023-08-01T20:54:12;99086.13;;;17.99;66.57
19114;BME280;9689;51.052;13.772;2023-08-01T20:59:14;99087.47;;;18.04;66.40
19114;BME280;9689;51.052;13.772;2023-08-01T21:04:16;99078.09;;;18.00;68.26
19114;BME280;9689;51.052;13.772;2023-08-01T21:09:17;99087.59;;;17.90;69.31
19114;BME280;9689;51.052;13.772;2023-08-01T21:14:19;99088.44;;;17.91;69.95
19114;BME280;9689;51.052;13.772;2023-08-01T21:19:20;99087.78;;;17.87;70.21
19114;BME280;9689;51.052;13.772;2023-08-01T21:24:21;99092.44;;;17.96;70.75
19114;BME280;9689;51.052;13.772;2023-08-01T21:29:23;99091.16;;;17.89;71.36
19114;BME280;9689;51.052;13.772;2023-08-01T21:34:24;99091.91;;;17.78;71.95
19114;BME280;9689;51.052;13.772;2023-08-01T21:39:25;99099.81;;;17.78;71.36
19114;BME280;9689;51.052;13.772;2023-08-01T21:44:27;99108.69;;;17.90;71.23
19114;BME280;9689;51.052;13.772;2023-08-01T21:49:28;99103.72;;;17.86;71.30
19114;BME280;9689;51.052;13.772;2023-08-01T21:54:29;99107.59;;;17.67;70.18
19114;BME280;9689;51.052;13.772;2023-08-01T21:59:31;99104.34;;;17.89;70.18
19114;BME280;9689;51.052;13.772;2023-08-01T22:04:32;99108.16;;;17.72;68.33
19114;BME280;9689;51.052;13.772;2023-08-01T22:09:33;99106.63;;;17.68;68.50
19114;BME280;9689;51.052;13.772;2023-08-01T22:14:35;99111.06;;;17.68;68.16
19114;BME280;9689;51.052;13.772;2023-08-01T22:19:36;99118.44;;;17.63;68.39
19114;BME280;9689;51.052;13.772;2023-08-01T22:24:37;99119.63;;;17.71;68.04
19114;BME280;9689;51.052;13.772;2023-08-01T22:29:40;99116.56;;;17.65;68.07
19114;BME280;9689;51.052;13.772;2023-08-01T22:34:41;99113.50;;;17.71;68.68
19114;BME280;9689;51.052;13.772;2023-08-01T22:39:42;99120.47;;;17.72;68.39
19114;BME280;9689;51.052;13.772;2023-08-01T22:44:44;99126.75;;;17.69;68.26
19114;BME280;9689;51.052;13.772;2023-08-01T22:49:45;99121.44;;;17.84;68.46
19114;BME280;9689;51.052;13.772;2023-08-01T22:54:58;99116.06;;;17.72;68.48
19114;BME280;9689;51.052;13.772;2023-08-01T23:00:00;99125.34;;;17.91;68.62
19114;BME280;9689;51.052;13.772;2023-08-01T23:05:01;99127.22;;;18.01;68.03
19114;BME280;9689;51.052;13.772;2023-08-01T23:10:04;99136.19;;;17.86;67.68
19114;BME280;9689;51.052;13.772;2023-08-01T23:15:08;99128.81;;;17.91;66.94
19114;BME280;9689;51.052;13.772;2023-08-01T23:20:09;99133.16;;;17.92;66.82
19114;BME280;9689;51.052;13.772;2023-08-01T23:25:10;99140.72;;;17.97;67.07
19114;BME280;9689;51.052;13.772;2023-08-01T23:30:13;99135.56;;;18.08;66.39
19114;BME280;9689;51.052;13.772;2023-08-01T23:35:14;99135.88;;;18.16;65.77
19114;BME280;9689;51.052;13.772;2023-08-01T23:40:16;99140.31;;;17.90;67.22
19114;BME280;9689;51.052;13.772;2023-08-01T23:45:18;99138.94;;;17.85;66.60
19114;BME280;9689;51.052;13.772;2023-08-01T23:50:19;99135.34;;;17.73;66.87
19114;BME280;9689;51.052;13.772;2023-08-01T23:55:20;99128.34;;;17.59;66.55
